sensor_id;sensor_type;location;lat;lon;timestamp;temperature;humidity
47532;DHT22;33273;52.254;7.988;2023-07-13T00:00:35;15.90;87.10
47532;DHT22;33273;52.254;7.988;2023-07-13T00:03:02;15.80;87.10
47532;DHT22;33273;52.254;7.988;2023-07-13T00:05:28;15.80;86.70
47532;DHT22;33273;52.254;7.988;2023-07-13T00:07:54;15.80;87.20
47532;DHT22;33273;52.254;7.988;2023-07-13T00:10:24;15.90;85.90
47532;DHT22;33273;52.254;7.988;2023-07-13T00:12:51;15.80;86.10
47532;DHT22;33273;52.254;7.988;2023-07-13T00:15:25;15.80;86.80
47532;DHT22;33273;52.254;7.988;2023-07-13T00:17:53;15.70;88.20
47532;DHT22;33273;52.254;7.988;2023-07-13T00:20:21;15.70;87.90
47532;DHT22;33273;52.254;7.988;2023-07-13T00:22:48;15.70;87.20
47532;DHT22;33273;52.254;7.988;2023-07-13T00:25:15;15.70;86.70
47532;DHT22;33273;52.254;7.988;2023-07-13T00:27:42;15.70;86.00
47532;DHT22;33273;52.254;7.988;2023-07-13T00:30:09;15.70;86.20
47532;DHT22;33273;52.254;7.988;2023-07-13T00:32:35;15.70;85.70
47532;DHT22;33273;52.254;7.988;2023-07-13T00:35:03;15.70;84.30
47532;DHT22;33273;52.254;7.988;2023-07-13T00:37:30;15.70;84.70
47532;DHT22;33273;52.254;7.988;2023-07-13T00:39:57;15.60;84.90
47532;DHT22;33273;52.254;7.988;2023-07-13T00:42:23;15.60;84.30
47532;DHT22;33273;52.254;7.988;2023-07-13T00:47:42;15.60;83.50
47532;DHT22;33273;52.254;7.988;2023-07-13T00:50:11;15.60;84.00
47532;DHT22;33273;52.254;7.988;2023-07-13T00:52:41;15.60;84.60
47532;DHT22;33273;52.254;7.988;2023-07-13T00:55:09;15.50;83.70
47532;DHT22;33273;52.254;7.988;2023-07-13T00:57:37;15.50;84.70
47532;DHT22;33273;52.254;7.988;2023-07-13T01:00:05;15.40;85.00
47532;DHT22;33273;52.254;7.988;2023-07-13T01:02:34;15.40;86.10
47532;DHT22;33273;52.254;7.988;2023-07-13T01:05:01;15.20;87.00
47532;DHT22;33273;52.254;7.988;2023-07-13T01:07:28;15.20;88.00
47532;DHT22;33273;52.254;7.988;2023-07-13T01:12:23;15.20;87.80
47532;DHT22;33273;52.254;7.988;2023-07-13T01:14:56;15.30;85.90
47532;DHT22;33273;52.254;7.988;2023-07-13T01:17:22;15.30;85.00
47532;DHT22;33273;52.254;7.988;2023-07-13T01:19:47;15.20;85.80
47532;DHT22;33273;52.254;7.988;2023-07-13T01:22:15;15.30;87.30
47532;DHT22;33273;52.254;7.988;2023-07-13T01:24:45;15.30;86.40
47532;DHT22;33273;52.254;7.988;2023-07-13T01:27:15;15.30;86.50
47532;DHT22;33273;52.254;7.988;2023-07-13T01:29:43;15.30;85.90
47532;DHT22;33273;52.254;7.988;2023-07-13T01:32:15;15.20;86.50
47532;DHT22;33273;52.254;7.988;2023-07-13T01:34:41;15.30;87.90
47532;DHT22;33273;52.254;7.988;2023-07-13T01:37:09;15.30;89.00
47532;DHT22;33273;52.254;7.988;2023-07-13T01:39:35;15.30;87.70
47532;DHT22;33273;52.254;7.988;2023-07-13T01:42:03;15.30;87.20
47532;DHT22;33273;52.254;7.988;2023-07-13T01:44:29;15.10;88.40
47532;DHT22;33273;52.254;7.988;2023-07-13T01:46:55;15.10;89.50
47532;DHT22;33273;52.254;7.988;2023-07-13T01:49:21;15.10;89.60
47532;DHT22;33273;52.254;7.988;2023-07-13T01:51:48;15.10;90.20
47532;DHT22;33273;52.254;7.988;2023-07-13T01:54:14;15.10;90.10
47532;DHT22;33273;52.254;7.988;2023-07-13T01:56:40;15.10;90.10
47532;DHT22;33273;52.254;7.988;2023-07-13T01:59:08;15.10;89.90
47532;DHT22;33273;52.254;7.988;2023-07-13T02:01:34;15.00;90.60
47532;DHT22;33273;52.254;7.988;2023-07-13T02:04:00;15.10;90.50
47532;DHT22;33273;52.254;7.988;2023-07-13T02:06:28;15.10;90.50
47532;DHT22;33273;52.254;7.988;2023-07-13T02:08:54;15.10;91.10
47532;DHT22;33273;52.254;7.988;2023-07-13T02:11:20;15.10;91.10
47532;DHT22;33273;52.254;7.988;2023-07-13T02:13:47;15.20;90.80
47532;DHT22;33273;52.254;7.988;2023-07-13T02:16:12;15.30;90.50
47532;DHT22;33273;52.254;7.988;2023-07-13T02:18:38;15.30;89.40
47532;DHT22;33273;52.254;7.988;2023-07-13T02:21:04;15.30;89.50
47532;DHT22;33273;52.254;7.988;2023-07-13T02:23:31;15.30;89.40
47532;DHT22;33273;52.254;7.988;2023-07-13T02:25:58;15.30;88.30
47532;DHT22;33273;52.254;7.988;2023-07-13T02:28:24;15.40;89.50
47532;DHT22;33273;52.254;7.988;2023-07-13T02:30:50;15.30;88.90
47532;DHT22;33273;52.254;7.988;2023-07-13T02:33:17;15.40;88.30
47532;DHT22;33273;52.254;7.988;2023-07-13T02:35:44;15.40;87.70
47532;DHT22;33273;52.254;7.988;2023-07-13T02:38:10;15.40;87.60
47532;DHT22;33273;52.254;7.988;2023-07-13T02:40:37;15.50;87.80
47532;DHT22;33273;52.254;7.988;2023-07-13T02:43:03;15.50;87.20
47532;DHT22;33273;52.254;7.988;2023-07-13T02:45:31;15.50;87.90
47532;DHT22;33273;52.254;7.988;2023-07-13T02:47:58;15.50;86.90
47532;DHT22;33273;52.254;7.988;2023-07-13T02:50:24;15.50;86.30
47532;DHT22;33273;52.254;7.988;2023-07-13T02:52:49;15.50;86.50
47532;DHT22;33273;52.254;7.988;2023-07-13T02:55:16;15.50;86.00
47532;DHT22;33273;52.254;7.988;2023-07-13T02:57:41;15.50;85.90
47532;DHT22;33273;52.254;7.988;2023-07-13T03:00:07;15.40;86.50
47532;DHT22;33273;52.254;7.988;2023-07-13T03:02:34;15.40;87.10
47532;DHT22;33273;52.254;7.988;2023-07-13T03:05:01;15.40;86.70
47532;DHT22;33273;52.254;7.988;2023-07-13T03:07:27;15.50;86.50
47532;DHT22;33273;52.254;7.988;2023-07-13T03:09:54;15.50;86.00
47532;DHT22;33273;52.254;7.988;2023-07-13T03:12:21;15.50;85.90
47532;DHT22;33273;52.254;7.988;2023-07-13T03:14:47;15.60;85.50
47532;DHT22;33273;52.254;7.988;2023-07-13T03:17:13;15.60;85.60
47532;DHT22;33273;52.254;7.988;2023-07-13T03:19:40;15.60;85.20
47532;DHT22;33273;52.254;7.988;2023-07-13T03:22:06;15.60;85.20
47532;DHT22;33273;52.254;7.988;2023-07-13T03:24:33;15.60;84.70
47532;DHT22;33273;52.254;7.988;2023-07-13T03:27:01;15.60;84.10
47532;DHT22;33273;52.254;7.988;2023-07-13T03:29:27;15.50;83.50
47532;DHT22;33273;52.254;7.988;2023-07-13T03:31:53;15.50;83.80
47532;DHT22;33273;52.254;7.988;2023-07-13T03:34:21;15.50;83.50
47532;DHT22;33273;52.254;7.988;2023-07-13T03:36:47;15.50;83.40
47532;DHT22;33273;52.254;7.988;2023-07-13T03:39:13;15.50;83.50
47532;DHT22;33273;52.254;7.988;2023-07-13T03:41:48;15.40;83.20
47532;DHT22;33273;52.254;7.988;2023-07-13T03:44:15;15.40;83.80
47532;DHT22;33273;52.254;7.988;2023-07-13T03:46:41;15.40;84.00
47532;DHT22;33273;52.254;7.988;2023-07-13T03:49:07;15.50;84.00
47532;DHT22;33273;52.254;7.988;2023-07-13T03:51:33;15.50;83.70
47532;DHT22;33273;52.254;7.988;2023-07-13T03:54:00;15.50;83.30
47532;DHT22;33273;52.254;7.988;2023-07-13T03:56:25;15.50;83.60
47532;DHT22;33273;52.254;7.988;2023-07-13T03:58:52;15.50;84.10
47532;DHT22;33273;52.254;7.988;2023-07-13T04:01:20;15.50;83.70
47532;DHT22;33273;52.254;7.988;2023-07-13T04:03:47;15.60;83.50
47532;DHT22;33273;52.254;7.988;2023-07-13T04:06:14;15.60;84.20
47532;DHT22;33273;52.254;7.988;2023-07-13T04:08:40;15.60;82.60
47532;DHT22;33273;52.254;7.988;2023-07-13T04:11:06;15.60;83.70
47532;DHT22;33273;52.254;7.988;2023-07-13T04:13:32;15.50;83.30
47532;DHT22;33273;52.254;7.988;2023-07-13T04:15:58;15.40;84.10
47532;DHT22;33273;52.254;7.988;2023-07-13T04:18:24;15.50;84.00
47532;DHT22;33273;52.254;7.988;2023-07-13T04:20:50;15.60;84.20
47532;DHT22;33273;52.254;7.988;2023-07-13T04:23:19;15.60;83.00
47532;DHT22;33273;52.254;7.988;2023-07-13T04:25:45;15.80;82.30
47532;DHT22;33273;52.254;7.988;2023-07-13T04:28:11;15.90;81.20
47532;DHT22;33273;52.254;7.988;2023-07-13T04:30:37;16.20;80.50
47532;DHT22;33273;52.254;7.988;2023-07-13T04:33:03;16.50;78.60
47532;DHT22;33273;52.254;7.988;2023-07-13T04:35:30;16.70;78.90
47532;DHT22;33273;52.254;7.988;2023-07-13T04:37:55;17.20;76.70
47532;DHT22;33273;52.254;7.988;2023-07-13T04:40:22;17.60;74.90
47532;DHT22;33273;52.254;7.988;2023-07-13T04:42:47;18.10;70.20
47532;DHT22;33273;52.254;7.988;2023-07-13T04:45:13;18.30;63.00
47532;DHT22;33273;52.254;7.988;2023-07-13T04:47:40;18.50;60.20
47532;DHT22;33273;52.254;7.988;2023-07-13T04:50:06;18.80;62.70
47532;DHT22;33273;52.254;7.988;2023-07-13T04:52:32;19.40;58.30
47532;DHT22;33273;52.254;7.988;2023-07-13T04:54:58;19.70;56.50
47532;DHT22;33273;52.254;7.988;2023-07-13T04:57:25;20.00;54.90
47532;DHT22;33273;52.254;7.988;2023-07-13T04:59:51;20.40;53.80
47532;DHT22;33273;52.254;7.988;2023-07-13T05:02:16;21.00;51.20
47532;DHT22;33273;52.254;7.988;2023-07-13T05:04:42;21.10;48.30
47532;DHT22;33273;52.254;7.988;2023-07-13T05:07:09;21.10;45.20
47532;DHT22;33273;52.254;7.988;2023-07-13T05:09:35;21.10;46.90
47532;DHT22;33273;52.254;7.988;2023-07-13T05:12:01;21.40;44.40
47532;DHT22;33273;52.254;7.988;2023-07-13T05:14:28;21.70;43.50
47532;DHT22;33273;52.254;7.988;2023-07-13T05:16:54;21.50;44.00
47532;DHT22;33273;52.254;7.988;2023-07-13T05:19:20;21.60;43.90
47532;DHT22;33273;52.254;7.988;2023-07-13T05:21:46;21.40;43.40
47532;DHT22;33273;52.254;7.988;2023-07-13T05:24:11;21.00;43.30
47532;DHT22;33273;52.254;7.988;2023-07-13T05:26:37;21.00;45.10
47532;DHT22;33273;52.254;7.988;2023-07-13T05:29:03;20.80;44.00
47532;DHT22;33273;52.254;7.988;2023-07-13T05:31:29;20.60;44.60
47532;DHT22;33273;52.254;7.988;2023-07-13T05:33:54;20.20;46.30
47532;DHT22;33273;52.254;7.988;2023-07-13T05:36:20;20.20;49.90
47532;DHT22;33273;52.254;7.988;2023-07-13T05:38:46;20.20;49.20
47532;DHT22;33273;52.254;7.988;2023-07-13T05:41:12;20.20;50.60
47532;DHT22;33273;52.254;7.988;2023-07-13T05:43:37;19.60;53.50
47532;DHT22;33273;52.254;7.988;2023-07-13T05:46:03;19.40;54.10
47532;DHT22;33273;52.254;7.988;2023-07-13T05:48:29;19.20;56.00
47532;DHT22;33273;52.254;7.988;2023-07-13T05:50:55;18.90;57.10
47532;DHT22;33273;52.254;7.988;2023-07-13T05:53:20;18.70;59.20
47532;DHT22;33273;52.254;7.988;2023-07-13T05:55:47;18.50;61.40
47532;DHT22;33273;52.254;7.988;2023-07-13T05:58:17;18.40;66.70
47532;DHT22;33273;52.254;7.988;2023-07-13T06:00:43;18.50;62.10
47532;DHT22;33273;52.254;7.988;2023-07-13T06:03:09;18.60;62.20
47532;DHT22;33273;52.254;7.988;2023-07-13T06:05:35;18.60;61.30
47532;DHT22;33273;52.254;7.988;2023-07-13T06:08:02;18.40;61.00
47532;DHT22;33273;52.254;7.988;2023-07-13T06:10:29;18.30;62.50
47532;DHT22;33273;52.254;7.988;2023-07-13T06:12:55;18.60;63.50
47532;DHT22;33273;52.254;7.988;2023-07-13T06:15:20;18.90;64.00
47532;DHT22;33273;52.254;7.988;2023-07-13T06:17:47;19.40;61.00
47532;DHT22;33273;52.254;7.988;2023-07-13T06:20:13;19.50;57.30
47532;DHT22;33273;52.254;7.988;2023-07-13T06:22:38;19.40;56.20
47532;DHT22;33273;52.254;7.988;2023-07-13T06:25:06;19.40;55.90
47532;DHT22;33273;52.254;7.988;2023-07-13T06:27:31;19.70;60.10
47532;DHT22;33273;52.254;7.988;2023-07-13T06:29:57;20.20;57.50
47532;DHT22;33273;52.254;7.988;2023-07-13T06:32:24;20.60;56.60
47532;DHT22;33273;52.254;7.988;2023-07-13T06:34:50;21.20;50.80
47532;DHT22;33273;52.254;7.988;2023-07-13T06:37:17;21.60;51.30
47532;DHT22;33273;52.254;7.988;2023-07-13T06:39:43;22.00;47.80
47532;DHT22;33273;52.254;7.988;2023-07-13T06:42:08;22.00;46.60
47532;DHT22;33273;52.254;7.988;2023-07-13T06:44:36;22.30;47.80
47532;DHT22;33273;52.254;7.988;2023-07-13T06:47:02;22.80;45.60
47532;DHT22;33273;52.254;7.988;2023-07-13T06:49:28;22.90;44.10
47532;DHT22;33273;52.254;7.988;2023-07-13T06:51:54;22.70;44.20
47532;DHT22;33273;52.254;7.988;2023-07-13T06:54:20;22.90;44.00
47532;DHT22;33273;52.254;7.988;2023-07-13T06:56:46;23.10;45.00
47532;DHT22;33273;52.254;7.988;2023-07-13T06:59:12;23.30;44.10
47532;DHT22;33273;52.254;7.988;2023-07-13T07:01:38;23.10;43.40
47532;DHT22;33273;52.254;7.988;2023-07-13T07:04:03;23.30;43.30
47532;DHT22;33273;52.254;7.988;2023-07-13T07:06:29;23.20;42.90
47532;DHT22;33273;52.254;7.988;2023-07-13T07:08:55;23.50;43.10
47532;DHT22;33273;52.254;7.988;2023-07-13T07:11:23;23.20;43.00
47532;DHT22;33273;52.254;7.988;2023-07-13T07:13:50;23.10;43.60
47532;DHT22;33273;52.254;7.988;2023-07-13T07:16:17;23.30;43.80
47532;DHT22;33273;52.254;7.988;2023-07-13T07:18:43;23.30;44.00
47532;DHT22;33273;52.254;7.988;2023-07-13T07:21:09;23.20;42.70
47532;DHT22;33273;52.254;7.988;2023-07-13T07:23:34;23.20;43.20
47532;DHT22;33273;52.254;7.988;2023-07-13T07:26:03;22.70;43.10
47532;DHT22;33273;52.254;7.988;2023-07-13T07:28:29;22.60;45.30
47532;DHT22;33273;52.254;7.988;2023-07-13T07:30:56;22.30;45.30
47532;DHT22;33273;52.254;7.988;2023-07-13T07:33:22;22.40;46.50
47532;DHT22;33273;52.254;7.988;2023-07-13T07:35:48;22.80;45.60
47532;DHT22;33273;52.254;7.988;2023-07-13T07:38:13;23.10;44.60
47532;DHT22;33273;52.254;7.988;2023-07-13T07:40:40;23.20;45.30
47532;DHT22;33273;52.254;7.988;2023-07-13T07:43:07;23.10;45.10
47532;DHT22;33273;52.254;7.988;2023-07-13T07:45:32;23.40;44.00
47532;DHT22;33273;52.254;7.988;2023-07-13T07:47:58;23.60;43.50
47532;DHT22;33273;52.254;7.988;2023-07-13T07:50:25;23.50;42.70
47532;DHT22;33273;52.254;7.988;2023-07-13T07:52:51;23.10;43.70
47532;DHT22;33273;52.254;7.988;2023-07-13T07:55:17;23.00;44.80
47532;DHT22;33273;52.254;7.988;2023-07-13T07:57:42;22.90;44.00
47532;DHT22;33273;52.254;7.988;2023-07-13T08:00:08;22.70;44.70
47532;DHT22;33273;52.254;7.988;2023-07-13T08:02:40;22.70;45.00
47532;DHT22;33273;52.254;7.988;2023-07-13T08:05:09;22.60;45.20
47532;DHT22;33273;52.254;7.988;2023-07-13T08:07:36;22.60;45.10
47532;DHT22;33273;52.254;7.988;2023-07-13T08:10:02;22.60;44.80
47532;DHT22;33273;52.254;7.988;2023-07-13T08:12:28;22.50;44.70
47532;DHT22;33273;52.254;7.988;2023-07-13T08:14:53;22.50;45.10
47532;DHT22;33273;52.254;7.988;2023-07-13T08:17:24;22.40;45.90
47532;DHT22;33273;52.254;7.988;2023-07-13T08:19:50;22.60;44.90
47532;DHT22;33273;52.254;7.988;2023-07-13T08:22:16;22.40;45.10
47532;DHT22;33273;52.254;7.988;2023-07-13T08:24:42;22.30;45.80
47532;DHT22;33273;52.254;7.988;2023-07-13T08:27:13;22.50;46.30
47532;DHT22;33273;52.254;7.988;2023-07-13T08:29:38;22.70;45.90
47532;DHT22;33273;52.254;7.988;2023-07-13T08:32:05;22.60;44.10
47532;DHT22;33273;52.254;7.988;2023-07-13T08:34:31;22.70;45.00
47532;DHT22;33273;52.254;7.988;2023-07-13T08:36:57;22.70;44.90
47532;DHT22;33273;52.254;7.988;2023-07-13T08:39:22;22.80;45.10
47532;DHT22;33273;52.254;7.988;2023-07-13T08:41:53;22.90;45.50
47532;DHT22;33273;52.254;7.988;2023-07-13T08:45:22;22.70;42.90
47532;DHT22;33273;52.254;7.988;2023-07-13T08:47:18;22.50;45.10
47532;DHT22;33273;52.254;7.988;2023-07-13T08:49:46;22.50;44.60
47532;DHT22;33273;52.254;7.988;2023-07-13T08:54:48;22.00;46.40
47532;DHT22;33273;52.254;7.988;2023-07-13T08:57:18;21.90;46.50
47532;DHT22;33273;52.254;7.988;2023-07-13T08:59:45;21.90;46.10
47532;DHT22;33273;52.254;7.988;2023-07-13T09:02:20;21.70;47.40
47532;DHT22;33273;52.254;7.988;2023-07-13T09:12:29;22.40;46.40
47532;DHT22;33273;52.254;7.988;2023-07-13T09:14:57;22.40;46.30
47532;DHT22;33273;52.254;7.988;2023-07-13T09:17:26;22.60;46.40
47532;DHT22;33273;52.254;7.988;2023-07-13T09:19:57;22.70;44.70
47532;DHT22;33273;52.254;7.988;2023-07-13T09:22:24;22.90;45.00
47532;DHT22;33273;52.254;7.988;2023-07-13T09:25:02;23.10;43.20
47532;DHT22;33273;52.254;7.988;2023-07-13T09:27:31;23.10;41.70
47532;DHT22;33273;52.254;7.988;2023-07-13T09:30:02;23.10;42.40
47532;DHT22;33273;52.254;7.988;2023-07-13T09:32:34;23.30;41.80
47532;DHT22;33273;52.254;7.988;2023-07-13T09:35:00;23.40;41.80
47532;DHT22;33273;52.254;7.988;2023-07-13T09:37:28;23.40;39.70
47532;DHT22;33273;52.254;7.988;2023-07-13T09:39:55;23.20;41.70
47532;DHT22;33273;52.254;7.988;2023-07-13T09:42:22;23.10;40.60
47532;DHT22;33273;52.254;7.988;2023-07-13T09:44:57;23.00;40.70
47532;DHT22;33273;52.254;7.988;2023-07-13T09:47:28;22.90;40.30
47532;DHT22;33273;52.254;7.988;2023-07-13T09:52:24;22.50;43.50
47532;DHT22;33273;52.254;7.988;2023-07-13T09:54:51;22.80;43.60
47532;DHT22;33273;52.254;7.988;2023-07-13T09:57:19;22.90;41.80
47532;DHT22;33273;52.254;7.988;2023-07-13T09:59:49;23.00;41.90
47532;DHT22;33273;52.254;7.988;2023-07-13T10:02:31;23.10;43.00
47532;DHT22;33273;52.254;7.988;2023-07-13T10:05:10;23.40;45.10
47532;DHT22;33273;52.254;7.988;2023-07-13T10:07:41;23.70;41.10
47532;DHT22;33273;52.254;7.988;2023-07-13T10:10:20;23.80;41.30
47532;DHT22;33273;52.254;7.988;2023-07-13T10:12:48;23.80;39.80
47532;DHT22;33273;52.254;7.988;2023-07-13T10:15:16;23.60;39.30
47532;DHT22;33273;52.254;7.988;2023-07-13T10:17:43;23.50;39.80
47532;DHT22;33273;52.254;7.988;2023-07-13T10:20:09;23.20;38.40
47532;DHT22;33273;52.254;7.988;2023-07-13T10:25:24;23.20;43.10
47532;DHT22;33273;52.254;7.988;2023-07-13T10:27:51;23.50;41.90
47532;DHT22;33273;52.254;7.988;2023-07-13T10:32:43;23.20;39.60
47532;DHT22;33273;52.254;7.988;2023-07-13T10:35:14;23.10;40.50
47532;DHT22;33273;52.254;7.988;2023-07-13T10:40:25;23.00;39.80
47532;DHT22;33273;52.254;7.988;2023-07-13T10:42:52;23.10;41.60
47532;DHT22;33273;52.254;7.988;2023-07-13T10:45:19;22.90;39.30
47532;DHT22;33273;52.254;7.988;2023-07-13T10:47:45;22.60;41.50
47532;DHT22;33273;52.254;7.988;2023-07-13T10:50:19;22.50;42.80
47532;DHT22;33273;52.254;7.988;2023-07-13T10:52:49;22.40;44.20
47532;DHT22;33273;52.254;7.988;2023-07-13T11:01:02;22.50;41.30
47532;DHT22;33273;52.254;7.988;2023-07-13T11:03:28;22.50;41.80
47532;DHT22;33273;52.254;7.988;2023-07-13T11:06:17;22.50;40.60
47532;DHT22;33273;52.254;7.988;2023-07-13T11:08:52;22.60;41.70
47532;DHT22;33273;52.254;7.988;2023-07-13T11:14:00;22.80;41.80
47532;DHT22;33273;52.254;7.988;2023-07-13T11:16:37;23.10;42.20
47532;DHT22;33273;52.254;7.988;2023-07-13T11:21:29;23.30;39.70
47532;DHT22;33273;52.254;7.988;2023-07-13T11:26:40;23.60;38.30
47532;DHT22;33273;52.254;7.988;2023-07-13T11:31:51;23.70;39.00
47532;DHT22;33273;52.254;7.988;2023-07-13T11:34:19;23.80;37.00
47532;DHT22;33273;52.254;7.988;2023-07-13T11:36:48;23.50;37.00
47532;DHT22;33273;52.254;7.988;2023-07-13T11:39:22;23.80;38.20
47532;DHT22;33273;52.254;7.988;2023-07-13T11:41:53;23.80;36.30
47532;DHT22;33273;52.254;7.988;2023-07-13T11:44:22;24.10;36.50
47532;DHT22;33273;52.254;7.988;2023-07-13T11:46:53;24.20;36.00
47532;DHT22;33273;52.254;7.988;2023-07-13T11:49:20;24.10;36.30
47532;DHT22;33273;52.254;7.988;2023-07-13T11:51:46;24.20;36.20
47532;DHT22;33273;52.254;7.988;2023-07-13T11:54:20;24.30;36.50
47532;DHT22;33273;52.254;7.988;2023-07-13T11:56:48;24.30;35.60
47532;DHT22;33273;52.254;7.988;2023-07-13T11:59:15;24.50;35.70
47532;DHT22;33273;52.254;7.988;2023-07-13T12:01:46;24.70;35.70
47532;DHT22;33273;52.254;7.988;2023-07-13T12:04:21;24.80;35.50
47532;DHT22;33273;52.254;7.988;2023-07-13T12:06:53;24.90;33.90
47532;DHT22;33273;52.254;7.988;2023-07-13T12:09:22;24.80;35.00
47532;DHT22;33273;52.254;7.988;2023-07-13T12:11:51;24.70;34.90
47532;DHT22;33273;52.254;7.988;2023-07-13T12:14:18;24.50;35.50
47532;DHT22;33273;52.254;7.988;2023-07-13T12:16:45;24.50;35.70
47532;DHT22;33273;52.254;7.988;2023-07-13T12:19:25;24.30;34.50
47532;DHT22;33273;52.254;7.988;2023-07-13T12:21:56;24.20;35.30
47532;DHT22;33273;52.254;7.988;2023-07-13T12:24:22;24.20;34.60
47532;DHT22;33273;52.254;7.988;2023-07-13T12:26:52;24.10;33.10
47532;DHT22;33273;52.254;7.988;2023-07-13T12:29:18;23.80;34.30
47532;DHT22;33273;52.254;7.988;2023-07-13T12:31:46;23.50;34.60
47532;DHT22;33273;52.254;7.988;2023-07-13T12:34:13;23.30;36.40
47532;DHT22;33273;52.254;7.988;2023-07-13T12:36:46;23.40;36.70
47532;DHT22;33273;52.254;7.988;2023-07-13T12:39:20;23.20;35.50
47532;DHT22;33273;52.254;7.988;2023-07-13T12:41:47;22.70;36.50
47532;DHT22;33273;52.254;7.988;2023-07-13T12:44:17;22.60;37.80
47532;DHT22;33273;52.254;7.988;2023-07-13T12:46:51;22.60;39.10
47532;DHT22;33273;52.254;7.988;2023-07-13T12:49:18;22.10;40.30
47532;DHT22;33273;52.254;7.988;2023-07-13T12:51:49;21.30;42.20
47532;DHT22;33273;52.254;7.988;2023-07-13T12:54:16;20.80;45.90
47532;DHT22;33273;52.254;7.988;2023-07-13T12:56:42;20.30;53.40
47532;DHT22;33273;52.254;7.988;2023-07-13T12:59:08;20.10;54.20
47532;DHT22;33273;52.254;7.988;2023-07-13T13:01:41;19.60;54.20
47532;DHT22;33273;52.254;7.988;2023-07-13T13:04:08;19.40;58.30
47532;DHT22;33273;52.254;7.988;2023-07-13T13:06:36;19.30;60.90
47532;DHT22;33273;52.254;7.988;2023-07-13T13:09:03;19.30;64.50
47532;DHT22;33273;52.254;7.988;2023-07-13T13:11:30;19.40;63.70
47532;DHT22;33273;52.254;7.988;2023-07-13T13:13:56;19.70;66.00
47532;DHT22;33273;52.254;7.988;2023-07-13T13:16:31;19.90;64.80
47532;DHT22;33273;52.254;7.988;2023-07-13T13:18:59;20.20;64.70
47532;DHT22;33273;52.254;7.988;2023-07-13T13:21:25;20.50;63.20
47532;DHT22;33273;52.254;7.988;2023-07-13T13:23:51;20.70;61.10
47532;DHT22;33273;52.254;7.988;2023-07-13T13:26:18;20.80;60.10
47532;DHT22;33273;52.254;7.988;2023-07-13T13:28:45;21.00;60.70
47532;DHT22;33273;52.254;7.988;2023-07-13T13:31:11;21.00;53.80
47532;DHT22;33273;52.254;7.988;2023-07-13T13:33:39;21.20;56.90
47532;DHT22;33273;52.254;7.988;2023-07-13T13:36:15;21.40;54.50
47532;DHT22;33273;52.254;7.988;2023-07-13T13:38:42;21.10;53.10
47532;DHT22;33273;52.254;7.988;2023-07-13T13:41:12;21.00;53.70
47532;DHT22;33273;52.254;7.988;2023-07-13T13:43:39;20.70;53.60
47532;DHT22;33273;52.254;7.988;2023-07-13T13:46:09;20.50;56.00
47532;DHT22;33273;52.254;7.988;2023-07-13T13:48:36;20.20;57.90
47532;DHT22;33273;52.254;7.988;2023-07-13T13:51:06;20.10;61.60
47532;DHT22;33273;52.254;7.988;2023-07-13T13:53:36;19.90;65.10
47532;DHT22;33273;52.254;7.988;2023-07-13T13:56:04;19.80;65.20
47532;DHT22;33273;52.254;7.988;2023-07-13T13:58:30;19.60;67.30
47532;DHT22;33273;52.254;7.988;2023-07-13T14:00:56;19.50;70.00
47532;DHT22;33273;52.254;7.988;2023-07-13T14:03:23;19.20;71.50
47532;DHT22;33273;52.254;7.988;2023-07-13T14:05:50;19.10;77.50
47532;DHT22;33273;52.254;7.988;2023-07-13T14:08:18;19.00;80.90
47532;DHT22;33273;52.254;7.988;2023-07-13T14:10:45;19.10;84.00
47532;DHT22;33273;52.254;7.988;2023-07-13T14:13:16;19.30;87.70
47532;DHT22;33273;52.254;7.988;2023-07-13T14:15:43;19.50;91.00
47532;DHT22;33273;52.254;7.988;2023-07-13T14:18:09;19.70;91.60
47532;DHT22;33273;52.254;7.988;2023-07-13T14:20:35;19.80;81.30
47532;DHT22;33273;52.254;7.988;2023-07-13T14:23:01;19.80;74.10
47532;DHT22;33273;52.254;7.988;2023-07-13T14:25:29;20.00;84.20
47532;DHT22;33273;52.254;7.988;2023-07-13T14:27:56;19.80;69.30
47532;DHT22;33273;52.254;7.988;2023-07-13T14:30:24;19.90;77.60
47532;DHT22;33273;52.254;7.988;2023-07-13T14:32:50;19.90;83.20
47532;DHT22;33273;52.254;7.988;2023-07-13T14:35:18;20.00;81.90
47532;DHT22;33273;52.254;7.988;2023-07-13T14:37:45;19.90;80.60
47532;DHT22;33273;52.254;7.988;2023-07-13T14:40:33;20.10;84.20
47532;DHT22;33273;52.254;7.988;2023-07-13T14:42:58;20.20;85.60
47532;DHT22;33273;52.254;7.988;2023-07-13T14:45:24;20.10;81.80
47532;DHT22;33273;52.254;7.988;2023-07-13T14:47:50;20.30;84.10
47532;DHT22;33273;52.254;7.988;2023-07-13T14:50:17;20.30;82.60
47532;DHT22;33273;52.254;7.988;2023-07-13T14:52:44;20.30;86.10
47532;DHT22;33273;52.254;7.988;2023-07-13T14:55:15;20.20;83.50
47532;DHT22;33273;52.254;7.988;2023-07-13T14:57:41;20.10;84.90
47532;DHT22;33273;52.254;7.988;2023-07-13T15:00:12;20.10;87.30
47532;DHT22;33273;52.254;7.988;2023-07-13T15:02:38;20.10;88.30
47532;DHT22;33273;52.254;7.988;2023-07-13T15:05:47;20.20;86.00
47532;DHT22;33273;52.254;7.988;2023-07-13T15:07:56;20.20;87.00
47532;DHT22;33273;52.254;7.988;2023-07-13T15:10:24;20.30;89.00
47532;DHT22;33273;52.254;7.988;2023-07-13T15:12:56;20.40;87.90
47532;DHT22;33273;52.254;7.988;2023-07-13T15:15:23;20.40;88.30
47532;DHT22;33273;52.254;7.988;2023-07-13T15:17:49;20.30;84.70
47532;DHT22;33273;52.254;7.988;2023-07-13T15:22:40;20.40;86.90
47532;DHT22;33273;52.254;7.988;2023-07-13T15:25:11;20.40;87.20
47532;DHT22;33273;52.254;7.988;2023-07-13T15:27:39;20.30;86.00
47532;DHT22;33273;52.254;7.988;2023-07-13T15:30:05;20.30;89.20
47532;DHT22;33273;52.254;7.988;2023-07-13T15:32:31;20.30;85.60
47532;DHT22;33273;52.254;7.988;2023-07-13T15:34:56;20.20;85.60
47532;DHT22;33273;52.254;7.988;2023-07-13T15:37:22;20.30;85.70
47532;DHT22;33273;52.254;7.988;2023-07-13T15:39:48;20.20;82.30
47532;DHT22;33273;52.254;7.988;2023-07-13T15:42:18;20.30;84.90
47532;DHT22;33273;52.254;7.988;2023-07-13T15:44:44;20.20;79.00
47532;DHT22;33273;52.254;7.988;2023-07-13T15:47:11;20.20;81.80
47532;DHT22;33273;52.254;7.988;2023-07-13T15:49:38;20.30;83.10
47532;DHT22;33273;52.254;7.988;2023-07-13T15:52:04;20.30;82.60
47532;DHT22;33273;52.254;7.988;2023-07-13T15:54:31;20.20;76.10
47532;DHT22;33273;52.254;7.988;2023-07-13T15:56:56;20.20;73.20
47532;DHT22;33273;52.254;7.988;2023-07-13T15:59:26;20.20;72.30
47532;DHT22;33273;52.254;7.988;2023-07-13T16:01:51;20.30;77.10
47532;DHT22;33273;52.254;7.988;2023-07-13T16:04:17;20.60;77.10
47532;DHT22;33273;52.254;7.988;2023-07-13T16:06:44;20.80;72.20
47532;DHT22;33273;52.254;7.988;2023-07-13T16:09:18;20.90;72.20
47532;DHT22;33273;52.254;7.988;2023-07-13T16:11:44;21.00;68.80
47532;DHT22;33273;52.254;7.988;2023-07-13T16:14:13;21.00;65.30
47532;DHT22;33273;52.254;7.988;2023-07-13T16:16:40;21.00;65.20